sensor_id;sensor_type;location;lat;lon;timestamp;temperature;humidity
6581;DHT22;3324;50.796;7.228;2023-04-09T00:01:56;8.10;99.90
6581;DHT22;3324;50.796;7.228;2023-04-09T00:04:22;8.10;99.90
6581;DHT22;3324;50.796;7.228;2023-04-09T00:06:48;8.10;99.90
6581;DHT22;3324;50.796;7.228;2023-04-09T00:09:14;8.10;99.90
6581;DHT22;3324;50.796;7.228;2023-04-09T00:11:39;8.20;99.90
6581;DHT22;3324;50.796;7.228;2023-04-09T00:14:07;8.20;99.90
6581;DHT22;3324;50.796;7.228;2023-04-09T00:16:33;8.20;99.90
6581;DHT22;3324;50.796;7.228;2023-04-09T00:18:58;8.20;99.90
6581;DHT22;3324;50.796;7.228;2023-04-09T00:21:24;8.20;99.90
6581;DHT22;3324;50.796;7.228;2023-04-09T00:23:51;8.10;99.90
6581;DHT22;3324;50.796;7.228;2023-04-09T00:26:17;8.10;99.90
6581;DHT22;3324;50.796;7.228;2023-04-09T00:28:42;8.10;99.90
6581;DHT22;3324;50.796;7.228;2023-04-09T00:31:08;8.10;99.90
6581;DHT22;3324;50.796;7.228;2023-04-09T00:33:35;8.10;99.90
6581;DHT22;3324;50.796;7.228;2023-04-09T00:36:00;8.10;99.90
6581;DHT22;3324;50.796;7.228;2023-04-09T00:38:26;8.00;99.90
6581;DHT22;3324;50.796;7.228;2023-04-09T00:40:51;8.00;99.90
6581;DHT22;3324;50.796;7.228;2023-04-09T00:43:17;8.00;99.90
6581;DHT22;3324;50.796;7.228;2023-04-09T00:45:44;8.00;99.90
6581;DHT22;3324;50.796;7.228;2023-04-09T00:48:11;7.90;99.90
6581;DHT22;3324;50.796;7.228;2023-04-09T00:50:37;8.00;99.90
6581;DHT22;3324;50.796;7.228;2023-04-09T00:53:04;8.00;99.90
6581;DHT22;3324;50.796;7.228;2023-04-09T00:55:30;8.00;99.90
6581;DHT22;3324;50.796;7.228;2023-04-09T00:57:56;8.00;99.90
6581;DHT22;3324;50.796;7.228;2023-04-09T01:00:22;8.00;99.90
6581;DHT22;3324;50.796;7.228;2023-04-09T01:02:48;8.10;99.90
6581;DHT22;3324;50.796;7.228;2023-04-09T01:05:15;8.00;99.90
6581;DHT22;3324;50.796;7.228;2023-04-09T01:07:45;8.00;99.90
6581;DHT22;3324;50.796;7.228;2023-04-09T01:16:06;8.10;99.90
6581;DHT22;3324;50.796;7.228;2023-04-09T01:18:39;8.10;99.90
6581;DHT22;3324;50.796;7.228;2023-04-09T01:21:19;8.10;99.90
6581;DHT22;3324;50.796;7.228;2023-04-09T01:29:20;8.10;99.90
6581;DHT22;3324;50.796;7.228;2023-04-09T01:31:47;8.10;99.90
6581;DHT22;3324;50.796;7.228;2023-04-09T01:34:14;8.10;99.90
6581;DHT22;3324;50.796;7.228;2023-04-09T01:36:42;8.10;99.90
6581;DHT22;3324;50.796;7.228;2023-04-09T01:39:09;8.10;99.90
6581;DHT22;3324;50.796;7.228;2023-04-09T01:41:36;8.10;99.90
6581;DHT22;3324;50.796;7.228;2023-04-09T01:44:03;8.10;99.90
6581;DHT22;3324;50.796;7.228;2023-04-09T01:46:30;8.10;99.90
6581;DHT22;3324;50.796;7.228;2023-04-09T01:48:57;8.10;99.90
6581;DHT22;3324;50.796;7.228;2023-04-09T01:51:23;8.00;99.90
6581;DHT22;3324;50.796;7.228;2023-04-09T01:53:50;8.00;99.90
6581;DHT22;3324;50.796;7.228;2023-04-09T01:56:16;8.00;99.90
6581;DHT22;3324;50.796;7.228;2023-04-09T01:58:42;8.00;99.90
6581;DHT22;3324;50.796;7.228;2023-04-09T02:01:40;8.00;99.90
6581;DHT22;3324;50.796;7.228;2023-04-09T02:04:32;8.00;99.90
6581;DHT22;3324;50.796;7.228;2023-04-09T02:09:31;7.90;99.90
6581;DHT22;3324;50.796;7.228;2023-04-09T02:12:01;7.90;99.90
6581;DHT22;3324;50.796;7.228;2023-04-09T02:14:28;7.90;99.90
6581;DHT22;3324;50.796;7.228;2023-04-09T02:16:55;7.80;99.90
6581;DHT22;3324;50.796;7.228;2023-04-09T02:19:21;7.80;99.90
6581;DHT22;3324;50.796;7.228;2023-04-09T02:21:47;7.80;99.90
6581;DHT22;3324;50.796;7.228;2023-04-09T02:24:12;7.70;99.90
6581;DHT22;3324;50.796;7.228;2023-04-09T02:26:38;7.70;99.90
6581;DHT22;3324;50.796;7.228;2023-04-09T02:29:03;7.70;99.90
6581;DHT22;3324;50.796;7.228;2023-04-09T02:31:29;7.70;99.90
6581;DHT22;3324;50.796;7.228;2023-04-09T02:33:54;7.70;99.90
6581;DHT22;3324;50.796;7.228;2023-04-09T02:36:20;7.70;99.90
6581;DHT22;3324;50.796;7.228;2023-04-09T02:38:46;7.70;99.90
6581;DHT22;3324;50.796;7.228;2023-04-09T02:41:11;7.60;99.90
6581;DHT22;3324;50.796;7.228;2023-04-09T02:43:37;7.60;99.90
6581;DHT22;3324;50.796;7.228;2023-04-09T02:46:03;7.60;99.90
6581;DHT22;3324;50.796;7.228;2023-04-09T02:48:28;7.50;99.90
6581;DHT22;3324;50.796;7.228;2023-04-09T02:50:54;7.50;99.90
6581;DHT22;3324;50.796;7.228;2023-04-09T02:53:19;7.50;99.90
6581;DHT22;3324;50.796;7.228;2023-04-09T02:55:48;7.40;99.90
6581;DHT22;3324;50.796;7.228;2023-04-09T02:58:14;7.40;99.90
6581;DHT22;3324;50.796;7.228;2023-04-09T03:00:40;7.40;99.90
6581;DHT22;3324;50.796;7.228;2023-04-09T03:03:05;7.40;99.90
6581;DHT22;3324;50.796;7.228;2023-04-09T03:05:31;7.40;99.90
6581;DHT22;3324;50.796;7.228;2023-04-09T03:07:56;7.40;99.90
6581;DHT22;3324;50.796;7.228;2023-04-09T03:10:22;7.40;99.90
6581;DHT22;3324;50.796;7.228;2023-04-09T03:12:47;7.30;99.90
6581;DHT22;3324;50.796;7.228;2023-04-09T03:15:13;7.30;99.90
6581;DHT22;3324;50.796;7.228;2023-04-09T03:17:38;7.20;99.90
6581;DHT22;3324;50.796;7.228;2023-04-09T03:20:05;7.10;99.90
6581;DHT22;3324;50.796;7.228;2023-04-09T03:22:38;7.00;99.90
6581;DHT22;3324;50.796;7.228;2023-04-09T03:25:04;7.00;99.90
6581;DHT22;3324;50.796;7.228;2023-04-09T03:27:31;7.00;99.90
6581;DHT22;3324;50.796;7.228;2023-04-09T03:29:57;7.00;99.90
6581;DHT22;3324;50.796;7.228;2023-04-09T03:32:22;7.00;99.90
6581;DHT22;3324;50.796;7.228;2023-04-09T03:34:48;7.00;99.90
6581;DHT22;3324;50.796;7.228;2023-04-09T03:37:13;7.00;99.90
6581;DHT22;3324;50.796;7.228;2023-04-09T03:39:39;7.00;99.90
6581;DHT22;3324;50.796;7.228;2023-04-09T03:42:04;7.10;99.90
6581;DHT22;3324;50.796;7.228;2023-04-09T03:44:30;7.10;99.90
6581;DHT22;3324;50.796;7.228;2023-04-09T03:46:55;7.10;99.90
6581;DHT22;3324;50.796;7.228;2023-04-09T03:49:21;7.10;99.90
6581;DHT22;3324;50.796;7.228;2023-04-09T03:51:47;7.10;99.90
6581;DHT22;3324;50.796;7.228;2023-04-09T03:54:12;7.10;99.90
6581;DHT22;3324;50.796;7.228;2023-04-09T03:56:38;7.10;99.90
6581;DHT22;3324;50.796;7.228;2023-04-09T03:59:03;7.10;99.90
6581;DHT22;3324;50.796;7.228;2023-04-09T04:01:29;7.00;99.90
6581;DHT22;3324;50.796;7.228;2023-04-09T04:03:55;7.00;99.90
6581;DHT22;3324;50.796;7.228;2023-04-09T04:06:20;7.10;99.90
6581;DHT22;3324;50.796;7.228;2023-04-09T04:08:46;7.10;99.90
6581;DHT22;3324;50.796;7.228;2023-04-09T04:11:12;7.10;99.90
6581;DHT22;3324;50.796;7.228;2023-04-09T04:13:37;7.00;99.90
6581;DHT22;3324;50.796;7.228;2023-04-09T04:16:06;7.10;99.90
6581;DHT22;3324;50.796;7.228;2023-04-09T04:18:33;7.00;99.90
6581;DHT22;3324;50.796;7.228;2023-04-09T04:20:58;7.00;99.90
6581;DHT22;3324;50.796;7.228;2023-04-09T04:23:24;7.00;99.90
6581;DHT22;3324;50.796;7.228;2023-04-09T04:25:49;6.90;99.90
6581;DHT22;3324;50.796;7.228;2023-04-09T04:28:17;6.90;99.90
6581;DHT22;3324;50.796;7.228;2023-04-09T04:30:43;6.90;99.90
6581;DHT22;3324;50.796;7.228;2023-04-09T04:33:08;6.90;99.90
6581;DHT22;3324;50.796;7.228;2023-04-09T04:35:34;6.90;99.90
6581;DHT22;3324;50.796;7.228;2023-04-09T04:38:00;6.90;99.90
6581;DHT22;3324;50.796;7.228;2023-04-09T04:40:26;6.90;99.90
6581;DHT22;3324;50.796;7.228;2023-04-09T04:42:51;6.90;99.90
6581;DHT22;3324;50.796;7.228;2023-04-09T04:45:17;6.90;99.90
6581;DHT22;3324;50.796;7.228;2023-04-09T04:47:42;7.00;99.90
6581;DHT22;3324;50.796;7.228;2023-04-09T04:53:30;6.80;99.90
6581;DHT22;3324;50.796;7.228;2023-04-09T04:55:55;6.80;99.90
6581;DHT22;3324;50.796;7.228;2023-04-09T04:58:21;6.80;99.90
6581;DHT22;3324;50.796;7.228;2023-04-09T05:00:47;6.80;99.90
6581;DHT22;3324;50.796;7.228;2023-04-09T05:03:13;6.70;99.90
6581;DHT22;3324;50.796;7.228;2023-04-09T05:05:38;6.60;99.90
6581;DHT22;3324;50.796;7.228;2023-04-09T05:08:04;6.60;99.90
6581;DHT22;3324;50.796;7.228;2023-04-09T05:10:30;6.60;99.90
6581;DHT22;3324;50.796;7.228;2023-04-09T05:12:55;6.60;99.90
6581;DHT22;3324;50.796;7.228;2023-04-09T05:15:21;6.60;99.90
6581;DHT22;3324;50.796;7.228;2023-04-09T05:17:46;6.60;99.90
6581;DHT22;3324;50.796;7.228;2023-04-09T05:20:12;6.60;99.90
6581;DHT22;3324;50.796;7.228;2023-04-09T05:22:38;6.60;99.90
6581;DHT22;3324;50.796;7.228;2023-04-09T05:25:04;6.60;99.90
6581;DHT22;3324;50.796;7.228;2023-04-09T05:27:29;6.60;99.90
6581;DHT22;3324;50.796;7.228;2023-04-09T05:29:55;6.60;99.90
6581;DHT22;3324;50.796;7.228;2023-04-09T05:32:21;6.70;99.90
6581;DHT22;3324;50.796;7.228;2023-04-09T05:34:47;6.70;99.90
6581;DHT22;3324;50.796;7.228;2023-04-09T05:37:13;6.70;99.90
6581;DHT22;3324;50.796;7.228;2023-04-09T05:39:38;6.80;99.90
6581;DHT22;3324;50.796;7.228;2023-04-09T05:42:04;6.80;99.90
6581;DHT22;3324;50.796;7.228;2023-04-09T05:44:30;6.80;99.90
6581;DHT22;3324;50.796;7.228;2023-04-09T05:46:55;6.80;99.90
6581;DHT22;3324;50.796;7.228;2023-04-09T05:49:21;6.80;99.90
6581;DHT22;3324;50.796;7.228;2023-04-09T05:51:47;6.90;99.90
6581;DHT22;3324;50.796;7.228;2023-04-09T05:54:14;6.90;99.90
6581;DHT22;3324;50.796;7.228;2023-04-09T05:56:41;6.90;99.90
6581;DHT22;3324;50.796;7.228;2023-04-09T05:59:07;6.90;99.90
6581;DHT22;3324;50.796;7.228;2023-04-09T06:01:33;6.90;99.90
6581;DHT22;3324;50.796;7.228;2023-04-09T06:03:58;6.90;99.90
6581;DHT22;3324;50.796;7.228;2023-04-09T06:06:24;7.00;99.90
6581;DHT22;3324;50.796;7.228;2023-04-09T06:08:50;7.00;99.90
6581;DHT22;3324;50.796;7.228;2023-04-09T06:11:15;7.00;99.90
6581;DHT22;3324;50.796;7.228;2023-04-09T06:13:41;7.10;99.90
6581;DHT22;3324;50.796;7.228;2023-04-09T06:16:07;7.20;99.90
6581;DHT22;3324;50.796;7.228;2023-04-09T06:18:33;7.20;99.90
6581;DHT22;3324;50.796;7.228;2023-04-09T06:21:03;7.20;99.90
6581;DHT22;3324;50.796;7.228;2023-04-09T06:23:29;7.30;99.90
6581;DHT22;3324;50.796;7.228;2023-04-09T06:25:55;7.40;99.90
6581;DHT22;3324;50.796;7.228;2023-04-09T06:28:20;7.50;99.90
6581;DHT22;3324;50.796;7.228;2023-04-09T06:30:46;7.50;99.90
6581;DHT22;3324;50.796;7.228;2023-04-09T06:33:13;7.60;99.90
6581;DHT22;3324;50.796;7.228;2023-04-09T06:35:39;7.60;99.90
6581;DHT22;3324;50.796;7.228;2023-04-09T06:38:04;7.70;99.90
6581;DHT22;3324;50.796;7.228;2023-04-09T06:43:53;7.80;99.90
6581;DHT22;3324;50.796;7.228;2023-04-09T06:46:19;7.90;99.90
6581;DHT22;3324;50.796;7.228;2023-04-09T06:48:45;8.00;99.90
6581;DHT22;3324;50.796;7.228;2023-04-09T06:51:11;8.00;99.90
6581;DHT22;3324;50.796;7.228;2023-04-09T06:53:37;8.10;99.90
6581;DHT22;3324;50.796;7.228;2023-04-09T06:56:03;8.20;99.90
6581;DHT22;3324;50.796;7.228;2023-04-09T06:58:29;8.30;99.90
6581;DHT22;3324;50.796;7.228;2023-04-09T07:00:55;8.50;99.90
6581;DHT22;3324;50.796;7.228;2023-04-09T07:03:21;8.60;99.90
6581;DHT22;3324;50.796;7.228;2023-04-09T07:05:47;8.80;99.90
6581;DHT22;3324;50.796;7.228;2023-04-09T07:08:13;9.00;99.90
6581;DHT22;3324;50.796;7.228;2023-04-09T07:10:38;9.10;99.90
6581;DHT22;3324;50.796;7.228;2023-04-09T07:13:04;9.30;99.90
6581;DHT22;3324;50.796;7.228;2023-04-09T07:15:30;9.40;99.90
6581;DHT22;3324;50.796;7.228;2023-04-09T07:17:55;9.50;99.90
6581;DHT22;3324;50.796;7.228;2023-04-09T07:20:22;9.60;99.90
6581;DHT22;3324;50.796;7.228;2023-04-09T07:22:48;9.70;99.90
6581;DHT22;3324;50.796;7.228;2023-04-09T07:25:14;9.80;99.90
6581;DHT22;3324;50.796;7.228;2023-04-09T07:27:40;9.90;99.90
6581;DHT22;3324;50.796;7.228;2023-04-09T07:30:07;9.90;99.90
6581;DHT22;3324;50.796;7.228;2023-04-09T07:32:33;10.00;99.90
6581;DHT22;3324;50.796;7.228;2023-04-09T07:34:58;10.10;99.90
6581;DHT22;3324;50.796;7.228;2023-04-09T07:37:24;10.20;99.90
6581;DHT22;3324;50.796;7.228;2023-04-09T07:39:51;10.30;99.90
6581;DHT22;3324;50.796;7.228;2023-04-09T07:42:17;10.40;99.90
6581;DHT22;3324;50.796;7.228;2023-04-09T07:44:42;10.40;99.90
6581;DHT22;3324;50.796;7.228;2023-04-09T07:47:08;10.60;99.90
6581;DHT22;3324;50.796;7.228;2023-04-09T07:49:37;10.70;99.90
6581;DHT22;3324;50.796;7.228;2023-04-09T07:52:03;10.80;99.90
6581;DHT22;3324;50.796;7.228;2023-04-09T07:54:29;10.90;99.90
6581;DHT22;3324;50.796;7.228;2023-04-09T07:56:56;11.10;99.90
6581;DHT22;3324;50.796;7.228;2023-04-09T07:59:22;11.20;99.90
6581;DHT22;3324;50.796;7.228;2023-04-09T08:01:48;11.20;99.90
6581;DHT22;3324;50.796;7.228;2023-04-09T08:04:14;11.30;99.90
6581;DHT22;3324;50.796;7.228;2023-04-09T08:06:40;11.40;99.90
6581;DHT22;3324;50.796;7.228;2023-04-09T08:09:05;11.50;99.90
6581;DHT22;3324;50.796;7.228;2023-04-09T08:11:31;11.60;99.90
6581;DHT22;3324;50.796;7.228;2023-04-09T08:13:57;11.70;99.90
6581;DHT22;3324;50.796;7.228;2023-04-09T08:16:25;11.80;99.90
6581;DHT22;3324;50.796;7.228;2023-04-09T08:18:51;11.90;99.90
6581;DHT22;3324;50.796;7.228;2023-04-09T08:21:17;12.00;99.90
6581;DHT22;3324;50.796;7.228;2023-04-09T08:23:43;12.10;99.90
6581;DHT22;3324;50.796;7.228;2023-04-09T08:26:08;12.10;99.90
6581;DHT22;3324;50.796;7.228;2023-04-09T08:28:34;12.10;99.90
6581;DHT22;3324;50.796;7.228;2023-04-09T08:30:59;12.20;99.90
6581;DHT22;3324;50.796;7.228;2023-04-09T08:33:25;12.30;99.90
6581;DHT22;3324;50.796;7.228;2023-04-09T08:35:51;12.40;99.90
6581;DHT22;3324;50.796;7.228;2023-04-09T08:38:18;12.50;99.90
6581;DHT22;3324;50.796;7.228;2023-04-09T08:40:43;12.50;99.90
6581;DHT22;3324;50.796;7.228;2023-04-09T08:43:13;12.70;99.90
6581;DHT22;3324;50.796;7.228;2023-04-09T08:45:40;12.80;99.90
6581;DHT22;3324;50.796;7.228;2023-04-09T08:48:08;12.90;99.90
6581;DHT22;3324;50.796;7.228;2023-04-09T08:50:34;13.00;99.90
6581;DHT22;3324;50.796;7.228;2023-04-09T08:53:04;13.00;99.90
6581;DHT22;3324;50.796;7.228;2023-04-09T08:55:31;13.10;99.90
6581;DHT22;3324;50.796;7.228;2023-04-09T08:57:59;13.10;99.90
6581;DHT22;3324;50.796;7.228;2023-04-09T09:00:25;13.20;99.90
6581;DHT22;3324;50.796;7.228;2023-04-09T09:03:20;13.30;99.90
6581;DHT22;3324;50.796;7.228;2023-04-09T09:05:46;13.50;99.90
6581;DHT22;3324;50.796;7.228;2023-04-09T09:08:13;13.60;99.90
6581;DHT22;3324;50.796;7.228;2023-04-09T09:10:46;13.70;99.90
6581;DHT22;3324;50.796;7.228;2023-04-09T09:13:19;13.70;99.90
6581;DHT22;3324;50.796;7.228;2023-04-09T09:15:46;13.70;99.90
6581;DHT22;3324;50.796;7.228;2023-04-09T09:18:15;13.90;99.90
6581;DHT22;3324;50.796;7.228;2023-04-09T09:20:41;13.90;99.90
6581;DHT22;3324;50.796;7.228;2023-04-09T09:23:07;13.70;99.90
6581;DHT22;3324;50.796;7.228;2023-04-09T09:25:40;13.60;99.90
6581;DHT22;3324;50.796;7.228;2023-04-09T09:28:10;13.40;99.90
6581;DHT22;3324;50.796;7.228;2023-04-09T09:30:37;13.30;99.90
6581;DHT22;3324;50.796;7.228;2023-04-09T09:33:11;13.20;99.90
6581;DHT22;3324;50.796;7.228;2023-04-09T09:35:56;13.20;99.90
6581;DHT22;3324;50.796;7.228;2023-04-09T09:38:22;13.20;99.90
6581;DHT22;3324;50.796;7.228;2023-04-09T09:40:48;13.10;99.90
6581;DHT22;3324;50.796;7.228;2023-04-09T09:43:14;13.10;99.90
6581;DHT22;3324;50.796;7.228;2023-04-09T09:45:40;13.20;99.90
6581;DHT22;3324;50.796;7.228;2023-04-09T09:48:09;13.40;99.90
6581;DHT22;3324;50.796;7.228;2023-04-09T09:50:37;13.60;99.90
6581;DHT22;3324;50.796;7.228;2023-04-09T09:53:04;13.80;99.90
6581;DHT22;3324;50.796;7.228;2023-04-09T09:55:36;13.90;99.90
6581;DHT22;3324;50.796;7.228;2023-04-09T09:58:15;14.30;99.90
6581;DHT22;3324;50.796;7.228;2023-04-09T10:00:43;14.40;99.90
6581;DHT22;3324;50.796;7.228;2023-04-09T10:03:14;14.30;99.90
6581;DHT22;3324;50.796;7.228;2023-04-09T10:05:44;14.30;99.90
6581;DHT22;3324;50.796;7.228;2023-04-09T10:08:10;14.30;99.90
6581;DHT22;3324;50.796;7.228;2023-04-09T10:10:38;14.50;99.90
6581;DHT22;3324;50.796;7.228;2023-04-09T10:13:08;14.50;99.90
6581;DHT22;3324;50.796;7.228;2023-04-09T10:15:35;14.50;99.90
6581;DHT22;3324;50.796;7.228;2023-04-09T10:18:02;14.40;99.90
6581;DHT22;3324;50.796;7.228;2023-04-09T10:20:33;14.50;99.90
6581;DHT22;3324;50.796;7.228;2023-04-09T10:23:04;14.60;99.90
6581;DHT22;3324;50.796;7.228;2023-04-09T10:25:30;14.80;99.90
6581;DHT22;3324;50.796;7.228;2023-04-09T10:28:00;14.90;99.90
6581;DHT22;3324;50.796;7.228;2023-04-09T10:30:34;15.10;99.90
6581;DHT22;3324;50.796;7.228;2023-04-09T10:33:20;15.10;99.90
6581;DHT22;3324;50.796;7.228;2023-04-09T10:35:47;14.90;99.90
6581;DHT22;3324;50.796;7.228;2023-04-09T10:38:14;14.80;99.90
6581;DHT22;3324;50.796;7.228;2023-04-09T10:40:49;14.60;99.90
6581;DHT22;3324;50.796;7.228;2023-04-09T10:43:18;14.70;99.90
6581;DHT22;3324;50.796;7.228;2023-04-09T10:45:44;15.00;99.90
6581;DHT22;3324;50.796;7.228;2023-04-09T10:48:12;15.20;99.90
6581;DHT22;3324;50.796;7.228;2023-04-09T10:50:41;15.00;99.90
6581;DHT22;3324;50.796;7.228;2023-04-09T10:53:06;14.90;99.90
6581;DHT22;3324;50.796;7.228;2023-04-09T10:55:48;14.90;99.90
6581;DHT22;3324;50.796;7.228;2023-04-09T10:58:17;14.90;99.90
6581;DHT22;3324;50.796;7.228;2023-04-09T11:00:44;15.00;99.90
6581;DHT22;3324;50.796;7.228;2023-04-09T11:03:24;15.00;99.90
6581;DHT22;3324;50.796;7.228;2023-04-09T11:05:52;15.00;99.90
6581;DHT22;3324;50.796;7.228;2023-04-09T11:08:18;14.90;99.90
6581;DHT22;3324;50.796;7.228;2023-04-09T11:10:46;14.80;99.90
6581;DHT22;3324;50.796;7.228;2023-04-09T11:13:13;14.90;99.90
6581;DHT22;3324;50.796;7.228;2023-04-09T11:15:39;15.20;99.90
6581;DHT22;3324;50.796;7.228;2023-04-09T11:18:05;15.20;99.90
6581;DHT22;3324;50.796;7.228;2023-04-09T11:20:33;15.40;99.90
6581;DHT22;3324;50.796;7.228;2023-04-09T11:22:59;15.50;99.90
6581;DHT22;3324;50.796;7.228;2023-04-09T11:25:30;15.40;99.90
6581;DHT22;3324;50.796;7.228;2023-04-09T11:27:56;15.50;99.90
6581;DHT22;3324;50.796;7.228;2023-04-09T11:30:22;15.60;99.90
6581;DHT22;3324;50.796;7.228;2023-04-09T11:32:48;15.70;99.90
6581;DHT22;3324;50.796;7.228;2023-04-09T11:35:16;15.90;99.90
6581;DHT22;3324;50.796;7.228;2023-04-09T11:37:43;16.00;99.90
6581;DHT22;3324;50.796;7.228;2023-04-09T11:40:20;16.20;99.90
6581;DHT22;3324;50.796;7.228;2023-04-09T11:42:49;16.20;99.90
6581;DHT22;3324;50.796;7.228;2023-04-09T11:45:16;16.10;99.90
6581;DHT22;3324;50.796;7.228;2023-04-09T11:47:43;16.00;99.90
6581;DHT22;3324;50.796;7.228;2023-04-09T11:50:10;15.80;99.90
6581;DHT22;3324;50.796;7.228;2023-04-09T11:52:36;15.60;99.90
6581;DHT22;3324;50.796;7.228;2023-04-09T11:55:06;15.50;99.90
6581;DHT22;3324;50.796;7.228;2023-04-09T11:57:52;15.30;99.90
6581;DHT22;3324;50.796;7.228;2023-04-09T12:00:18;15.10;99.90
6581;DHT22;3324;50.796;7.228;2023-04-09T12:02:48;15.00;99.90
6581;DHT22;3324;50.796;7.228;2023-04-09T12:05:22;15.00;99.90
6581;DHT22;3324;50.796;7.228;2023-04-09T12:07:49;15.20;99.90
6581;DHT22;3324;50.796;7.228;2023-04-09T12:10:15;15.30;99.90
6581;DHT22;3324;50.796;7.228;2023-04-09T12:12:46;15.20;99.90
6581;DHT22;3324;50.796;7.228;2023-04-09T12:17:46;15.50;99.90
6581;DHT22;3324;50.796;7.228;2023-04-09T12:20:12;15.60;99.90
6581;DHT22;3324;50.796;7.228;2023-04-09T12:22:38;15.60;99.90
6581;DHT22;3324;50.796;7.228;2023-04-09T12:25:06;15.60;99.90
6581;DHT22;3324;50.796;7.228;2023-04-09T12:27:32;15.90;99.90
6581;DHT22;3324;50.796;7.228;2023-04-09T12:29:58;16.00;99.90
6581;DHT22;3324;50.796;7.228;2023-04-09T12:32:24;16.00;99.90
6581;DHT22;3324;50.796;7.228;2023-04-09T12:34:49;16.00;99.90
6581;DHT22;3324;50.796;7.228;2023-04-09T12:37:15;16.00;99.90
6581;DHT22;3324;50.796;7.228;2023-04-09T12:39:41;15.90;99.90
6581;DHT22;3324;50.796;7.228;2023-04-09T12:42:06;15.90;99.90
6581;DHT22;3324;50.796;7.228;2023-04-09T12:44:32;15.80;99.90
6581;DHT22;3324;50.796;7.228;2023-04-09T12:46:58;15.60;99.90
6581;DHT22;3324;50.796;7.228;2023-04-09T12:49:35;15.60;99.90
6581;DHT22;3324;50.796;7.228;2023-04-09T12:52:01;15.60;99.90
6581;DHT22;3324;50.796;7.228;2023-04-09T12:54:27;15.60;99.90
6581;DHT22;3324;50.796;7.228;2023-04-09T12:56:52;15.60;99.90
6581;DHT22;3324;50.796;7.228;2023-04-09T12:59:18;15.70;99.90
6581;DHT22;3324;50.796;7.228;2023-04-09T13:01:43;16.00;99.90
6581;DHT22;3324;50.796;7.228;2023-04-09T13:04:09;16.00;99.90
6581;DHT22;3324;50.796;7.228;2023-04-09T13:06:35;16.00;99.90
6581;DHT22;3324;50.796;7.228;2023-04-09T13:09:00;16.00;99.90
6581;DHT22;3324;50.796;7.228;2023-04-09T13:11:27;16.00;99.90
6581;DHT22;3324;50.796;7.228;2023-04-09T13:13:52;16.00;99.90
6581;DHT22;3324;50.796;7.228;2023-04-09T13:16:18;15.90;99.90
6581;DHT22;3324;50.796;7.228;2023-04-09T13:18:43;15.90;99.90
6581;DHT22;3324;50.796;7.228;2023-04-09T13:21:09;15.90;99.90
6581;DHT22;3324;50.796;7.228;2023-04-09T13:23:35;15.90;99.90
6581;DHT22;3324;50.796;7.228;2023-04-09T13:26:01;15.80;99.90
6581;DHT22;3324;50.796;7.228;2023-04-09T13:28:26;15.80;99.90
6581;DHT22;3324;50.796;7.228;2023-04-09T13:30:52;15.80;99.90
6581;DHT22;3324;50.796;7.228;2023-04-09T13:33:17;15.80;99.90
6581;DHT22;3324;50.796;7.228;2023-04-09T13:35:43;15.90;99.90
6581;DHT22;3324;50.796;7.228;2023-04-09T13:38:09;16.20;99.90
6581;DHT22;3324;50.796;7.228;2023-04-09T13:40:35;16.20;99.90
6581;DHT22;3324;50.796;7.228;2023-04-09T13:43:00;16.10;99.90
6581;DHT22;3324;50.796;7.228;2023-04-09T13:45:26;15.90;99.90
6581;DHT22;3324;50.796;7.228;2023-04-09T13:47:51;15.80;99.90
6581;DHT22;3324;50.796;7.228;2023-04-09T13:50:18;15.70;99.90
6581;DHT22;3324;50.796;7.228;2023-04-09T13:52:43;15.60;99.90
6581;DHT22;3324;50.796;7.228;2023-04-09T13:55:09;15.60;99.90
6581;DHT22;3324;50.796;7.228;2023-04-09T13:57:35;15.60;99.90
6581;DHT22;3324;50.796;7.228;2023-04-09T14:00:01;15.50;99.90
6581;DHT22;3324;50.796;7.228;2023-04-09T14:02:29;15.50;99.90
6581;DHT22;3324;50.796;7.228;2023-04-09T14:04:54;15.50;99.90
6581;DHT22;3324;50.796;7.228;2023-04-09T14:07:21;15.50;99.90
6581;DHT22;3324;50.796;7.228;2023-04-09T14:09:47;15.50;99.90
6581;DHT22;3324;50.796;7.228;2023-04-09T14:12:12;15.60;99.90
6581;DHT22;3324;50.796;7.228;2023-04-09T14:14:38;15.60;99.90
6581;DHT22;3324;50.796;7.228;2023-04-09T14:17:03;15.40;99.90
6581;DHT22;3324;50.796;7.228;2023-04-09T14:19:29;15.40;99.90
6581;DHT22;3324;50.796;7.228;2023-04-09T14:21:55;15.40;99.90
6581;DHT22;3324;50.796;7.228;2023-04-09T14:24:20;15.40;99.00
6581;DHT22;3324;50.796;7.228;2023-04-09T14:26:48;15.40;99.90
6581;DHT22;3324;50.796;7.228;2023-04-09T14:29:14;15.40;99.90
6581;DHT22;3324;50.796;7.228;2023-04-09T14:31:40;15.40;99.90
6581;DHT22;3324;50.796;7.228;2023-04-09T14:34:07;15.40;99.90
6581;DHT22;3324;50.796;7.228;2023-04-09T14:36:32;15.40;99.90
6581;DHT22;3324;50.796;7.228;2023-04-09T14:38:58;15.40;99.90
6581;DHT22;3324;50.796;7.228;2023-04-09T14:41:24;15.40;98.90
6581;DHT22;3324;50.796;7.228;2023-04-09T14:43:50;15.40;99.50
6581;DHT22;3324;50.796;7.228;2023-04-09T14:46:15;15.30;98.50
6581;DHT22;3324;50.796;7.228;2023-04-09T14:48:41;15.30;98.40
6581;DHT22;3324;50.796;7.228;2023-04-09T14:51:10;15.50;99.90
6581;DHT22;3324;50.796;7.228;2023-04-09T14:53:36;15.60;99.70
6581;DHT22;3324;50.796;7.228;2023-04-09T14:56:02;15.60;97.80
6581;DHT22;3324;50.796;7.228;2023-04-09T14:58:28;15.50;98.80
6581;DHT22;3324;50.796;7.228;2023-04-09T15:00:54;15.50;97.30
6581;DHT22;3324;50.796;7.228;2023-04-09T15:03:21;15.50;98.30
6581;DHT22;3324;50.796;7.228;2023-04-09T15:05:47;15.50;98.40
6581;DHT22;3324;50.796;7.228;2023-04-09T15:08:12;15.60;98.90
6581;DHT22;3324;50.796;7.228;2023-04-09T15:10:38;15.80;99.60
6581;DHT22;3324;50.796;7.228;2023-04-09T15:13:03;15.90;99.60
6581;DHT22;3324;50.796;7.228;2023-04-09T15:15:29;15.90;99.80
6581;DHT22;3324;50.796;7.228;2023-04-09T15:17:55;15.90;99.20
6581;DHT22;3324;50.796;7.228;2023-04-09T15:20:21;15.70;99.10
6581;DHT22;3324;50.796;7.228;2023-04-09T15:22:47;15.60;99.90
6581;DHT22;3324;50.796;7.228;2023-04-09T15:25:13;15.70;99.90
6581;DHT22;3324;50.796;7.228;2023-04-09T15:27:38;15.70;99.90
6581;DHT22;3324;50.796;7.228;2023-04-09T15:30:04;15.60;99.40
6581;DHT22;3324;50.796;7.228;2023-04-09T15:32:30;15.60;98.30
6581;DHT22;3324;50.796;7.228;2023-04-09T15:34:56;15.50;98.30
6581;DHT22;3324;50.796;7.228;2023-04-09T15:37:22;15.40;99.90
6581;DHT22;3324;50.796;7.228;2023-04-09T15:39:50;15.40;99.90
6581;DHT22;3324;50.796;7.228;2023-04-09T15:42:15;15.30;99.40
6581;DHT22;3324;50.796;7.228;2023-04-09T15:44:47;15.30;99.80
6581;DHT22;3324;50.796;7.228;2023-04-09T15:47:12;15.20;98.30
6581;DHT22;3324;50.796;7.228;2023-04-09T15:49:38;15.20;99.10
6581;DHT22;3324;50.796;7.228;2023-04-09T15:52:03;15.10;98.80
6581;DHT22;3324;50.796;7.228;2023-04-09T15:54:29;15.10;98.50
6581;DHT22;3324;50.796;7.228;2023-04-09T15:56:55;15.10;99.00
6581;DHT22;3324;50.796;7.228;2023-04-09T15:59:20;15.10;99.00
6581;DHT22;3324;50.796;7.228;2023-04-09T16:01:46;15.10;98.80
6581;DHT22;3324;50.796;7.228;2023-04-09T16:04:11;15.10;99.90
6581;DHT22;3324;50.796;7.228;2023-04-09T16:06:37;15.10;99.90
6581;DHT22;3324;50.796;7.228;2023-04-09T16:09:03;15.10;98.50
6581;DHT22;3324;50.796;7.228;2023-04-09T16:11:29;15.10;97.80
6581;DHT22;3324;50.796;7.228;2023-04-09T16:13:55;15.20;97.90
6581;DHT22;3324;50.796;7.228;2023-04-09T16:16:22;15.10;97.30
6581;DHT22;3324;50.796;7.228;2023-04-09T16:18:47;15.00;98.10
6581;DHT22;3324;50.796;7.228;2023-04-09T16:21:13;14.90;97.70
6581;DHT22;3324;50.796;7.228;2023-04-09T16:23:39;14.80;98.80
6581;DHT22;3324;50.796;7.228;2023-04-09T16:26:05;14.60;98.30
6581;DHT22;3324;50.796;7.228;2023-04-09T16:28:31;14.70;99.00
6581;DHT22;3324;50.796;7.228;2023-04-09T16:30:56;14.60;99.20